Terminal Aerodrome Forecast
Issued by NWS Central Illinois

Home | Current Version | Previous Version | Text Only | Print | Product List | Glossary On
Versions: 1 2 3 4 5 6 7 8 9 10 11 12 13 14 15 16
000
FTUS43 KILX 262348
TAFPIA
TAF
KPIA 262348Z 2700/2724 15004KT P6SM VCTS SCT050CB BKN200
      TEMPO 2701/2703 3SM TSRA BR BKN030CB OVC050
     FM270500 VRB03KT P6SM VCTS OVC050CB
     FM271000 VRB05KT 4SM BR OVC015
     FM271600 03005KT P6SM OVC025=

USA.gov is the U.S. government's official web portal to all federal, state and local government web resources and services.